Latest Coastal Weather Observations for Kingscote

IDS60701

Issued at 7:25 pm CST Sunday 21 September 2014 (issued every 10 minutes, with the page automatically refreshed every 10 minutes)

About coastal observations | Map of coastal stations | Coastal observations for SA | Marine services | Other Formats
Station Details ID: 022841 Name: KINGSCOTE AERO Lat: -35.71 Lon: 137.52 Height: 6.23 m
Data from the previous 72 hours. | See also: Recent months at Kingscote
Date/Time
CST
Temp

°C
Wind Pressure Rain
since 9am
mm
Weather Cloud Vis
km
Sea
Height
m
Swell
Dir
 
Speed
knots
Gust
knots
hPa Trend Height
m
Period
s
Dir
21/07:00pm 13.1 NE 4 5 1027.2 - 0.2 - - 10 - - - -
21/06:30pm 14.1 CALM 0 0 1027.1 - 0.2 - - 10 - - - -
21/06:00pm 14.9 E 4 5 1027.1 - 0.2 - - 10 - - - -
21/05:30pm 16.1 ENE 7 8 1027.0 - 0.2 - - 10 - - - -
21/05:00pm 17.2 E 8 9 1026.9 - 0.2 - - 10 - - - -
21/04:30pm 18.4 E 8 9 1027.0 - 0.2 - - 10 - - - -
21/04:00pm 19.2 ENE 7 9 1027.1 - 0.2 - - 10 - - - -
21/03:30pm 19.9 NE 8 11 1027.2 - 0.2 - - 10 - - - -
21/03:00pm 19.8 ENE 8 11 1027.3 - 0.2 - - 10 - - - -
21/02:30pm 19.5 NE 9 11 1027.6 - 0.2 - - 10 - - - -
21/02:00pm 19.5 NE 9 11 1027.8 - 0.2 - - 10 - - - -
21/01:30pm 19.4 NE 9 12 1027.9 - 0.2 - - 10 - - - -
21/01:00pm 19.8 NE 9 14 1028.1 - 0.2 - - 10 - - - -
21/12:30pm 19.0 NE 11 12 1028.6 - 0.2 - - 10 - - - -
21/12:00pm 18.7 NNE 8 12 1029.2 - 0.2 - - 10 - - - -
21/11:30am 18.4 NE 10 14 1029.8 - 0.2 - - 10 - - - -
21/11:00am 18.6 NE 10 13 1030.2 - 0.2 - - 10 - - - -
21/10:30am 18.7 N 8 10 1030.4 - 0.0 - - 10 - - - -
21/10:00am 17.3 NE 6 9 1030.6 - 0.0 - - 10 - - - -
21/09:30am 16.2 ENE 5 7 1030.7 - 0.0 - - 10 - - - -
21/09:00am 14.7 E 5 7 1030.8 - 0.0 - - 10 - - - -
21/08:30am 11.8 CALM 0 0 1030.6 - 0.0 - - 10 - - - -
21/08:00am 9.4 CALM 0 0 1030.5 - 0.0 - - 10 - - - -
21/07:30am 6.9 CALM 0 0 1030.2 - 0.0 - - 10 - - - -
21/07:00am 4.1 CALM 0 0 1030.0 - 0.0 - - 10 - - - -
21/06:30am 2.5 CALM 0 0 1029.7 - 0.0 - - 10 - - - -
21/06:00am 2.6 CALM 0 0 1029.4 - 0.0 - - 10 - - - -
21/05:30am 2.8 CALM 0 0 1029.2 - 0.0 - - 10 - - - -
21/05:00am 2.9 CALM 0 0 1028.8 - 0.0 - - 10 - - - -
21/04:30am 3.2 CALM 0 0 1028.6 - 0.0 - - 10 - - - -
21/04:00am 3.8 CALM 0 0 1028.5 - 0.0 - - 10 - - - -
21/03:30am 3.9 CALM 0 0 1028.2 - 0.0 - - 10 - - - -
21/03:00am 3.7 CALM 0 0 1028.2 - 0.0 - - 10 - - - -
21/02:30am 3.3 W 0 0 1028.2 - 0.0 - - 10 - - - -
21/02:00am 4.8 CALM 0 0 1028.4 - 0.0 - - 10 - - - -
21/01:30am 5.4 CALM 0 0 1028.7 - 0.0 - - 10 - - - -
21/01:00am 5.5 CALM 0 0 1028.7 - 0.0 - - 10 - - - -
21/12:30am 5.6 CALM 0 0 1028.9 - 0.0 - - 10 - - - -
21/12:00am 6.2 SW 0 0 1028.9 - 0.0 - - 10 - - - -
 
Date/Time
CST
Temp

°C
Wind Pressure Rain
since 9am
mm
Weather Cloud Vis
km
Sea
Height
m
Swell
Dir
 
Speed
knots
Gust
knots
hPa Trend Height
m
Period
s
Dir
20/11:30pm 6.1 CALM 0 0 1028.8 - 0.0 - - 10 - - - -
20/11:00pm 6.3 S 2 4 1028.7 - 0.0 - - 10 - - - -
20/10:30pm 6.4 WSW 5 6 1028.6 - 0.0 - - 10 - - - -
20/10:00pm 6.8 S 4 4 1028.8 - 0.0 - - 10 - - - -
20/09:30pm 8.3 S 3 3 1028.6 - 0.0 - - 10 - - - -
20/09:00pm 9.8 SSE 6 7 1028.5 - 0.0 - - 10 - - - -
20/08:30pm 9.8 SSE 5 7 1028.2 - 0.0 - - 10 - - - -
20/08:00pm 10.9 ESE 7 9 1028.0 - 0.0 - - 10 - - - -
20/07:30pm 11.3 ESE 5 7 1027.8 - 0.0 - - 10 - - - -
20/07:00pm 11.9 SE 7 8 1027.3 - 0.0 - - 10 - - - -
20/06:30pm 13.4 SE 8 9 1027.0 - 0.0 - - 10 - - - -
20/06:00pm 15.1 E 8 11 1026.7 - 0.0 - - 10 - - - -
20/05:30pm 16.6 E 10 13 1026.3 - 0.0 - - 10 - - - -
20/05:00pm 17.6 E 11 14 1026.0 - 0.0 - - 10 - - - -
20/04:30pm 18.2 ENE 13 16 1025.7 - 0.0 - - 10 - - - -
20/04:00pm 18.6 E 14 17 1025.3 - 0.0 - - 10 - - - -
20/03:30pm 19.2 ENE 12 15 1025.2 - 0.0 - - 10 - - - -
20/03:00pm 18.7 ENE 10 13 1025.4 - 0.0 - - 10 - - - -
20/02:30pm 18.6 ENE 9 13 1025.4 - 0.0 - - 10 - - - -
20/02:00pm 18.6 ENE 10 14 1025.4 - 0.0 - - 10 - - - -
20/01:30pm 18.8 NE 9 12 1025.5 - 0.0 - - 10 - - - -
20/01:00pm 18.5 NE 11 14 1025.6 - 0.0 - - 10 - - - -
20/12:30pm 18.1 NE 9 13 1025.8 - 0.0 - - 10 - - - -
20/12:00pm 18.0 ENE 10 14 1026.0 - 0.0 - - 10 - - - -
20/11:30am 18.0 ENE 9 13 1026.4 - 0.0 - - 10 - - - -
20/11:00am 17.6 ENE 10 14 1026.4 - 0.0 - - 10 - - - -
20/10:30am 17.2 ENE 10 13 1026.5 - 0.0 - - 10 - - - -
20/10:00am 16.4 E 9 11 1027.0 - 0.0 - - 10 - - - -
20/09:30am 15.6 ENE 8 11 1027.3 - 0.0 - - 10 - - - -
20/09:00am 14.9 E 5 8 1027.2 - 0.2 - - 10 - - - -
20/08:30am 12.5 CALM 0 0 1026.8 - 0.2 - - 10 - - - -
20/08:00am 8.9 CALM 0 0 1026.5 - 0.2 - - 10 - - - -
20/07:30am 5.9 CALM 0 0 1026.2 - 0.2 - - 10 - - - -
20/07:00am 2.9 CALM 0 0 1025.8 - 0.2 - - 10 - - - -
20/06:30am 1.3 CALM 0 0 1025.5 - 0.2 - - 10 - - - -
20/06:00am 2.0 CALM 0 0 1025.1 - 0.2 - - 10 - - - -
20/05:30am 2.2 CALM 0 0 1024.8 - 0.2 - - 10 - - - -
20/05:00am 2.0 CALM 0 0 1024.4 - 0.2 - - 10 - - - -
20/04:30am 1.9 CALM 0 0 1023.9 - 0.2 - - 10 - - - -
20/04:00am 2.5 CALM 0 0 1023.7 - 0.2 - - 10 - - - -
20/03:30am 2.3 CALM 0 0 1023.6 - 0.2 - - 10 - - - -
20/03:00am 3.0 CALM 0 0 1023.6 - 0.2 - Mostly cloudy 10 - - - -
20/02:30am 3.5 CALM 0 0 1023.9 - 0.2 - - 10 - - - -
20/02:00am 3.3 CALM 0 0 1024.1 - 0.2 - - 10 - - - -
20/01:30am 4.1 CALM 0 0 1024.2 - 0.2 - - 10 - - - -
20/01:00am 4.4 CALM 0 0 1024.3 - 0.2 - - 10 - - - -
20/12:30am 5.1 CALM 0 0 1024.2 - 0.2 - - 10 - - - -
20/12:00am 5.9 CALM 0 0 1024.2 - 0.2 - Cloudy 10 - - - -
 
Date/Time
CST
Temp

°C
Wind Pressure Rain
since 9am
mm
Weather Cloud Vis
km
Sea
Height
m
Swell
Dir
 
Speed
knots
Gust
knots
hPa Trend Height
m
Period
s
Dir
19/11:30pm 5.7 CALM 0 0 1024.1 - 0.2 - - 10 - - - -
19/11:00pm 5.6 CALM 0 0 1024.2 - 0.2 - - 10 - - - -
19/10:30pm 5.3 S 4 4 1024.4 - 0.2 - - 10 - - - -
19/10:00pm 6.3 SSE 5 6 1024.6 - 0.2 - - 10 - - - -
19/09:30pm 7.4 SSE 4 5 1024.6 - 0.2 - - 10 - - - -
19/09:00pm 8.5 SE 6 6 1024.8 - 0.2 - - 10 - - - -
19/08:30pm 8.9 SSE 5 5 1024.7 - 0.2 - - 10 - - - -
19/08:00pm 9.4 SSE 4 5 1024.6 - 0.2 - - 10 - - - -
19/07:30pm 9.8 SE 5 7 1024.5 - 0.2 - - 10 - - - -
19/07:00pm 10.7 E 5 7 1024.2 - 0.2 - - 10 - - - -
19/06:30pm 11.4 E 7 9 1024.0 - 0.2 - - 10 - - - -
19/06:00pm 12.4 ENE 6 8 1023.8 - 0.2 - - 10 - - - -
19/05:30pm 14.2 ENE 6 9 1023.6 - 0.2 - - 10 - - - -
19/05:00pm 14.9 E 7 9 1023.7 - 0.2 - - 10 - - - -
19/04:30pm 15.4 E 7 10 1023.5 - 0.2 - - 10 - - - -
19/04:00pm 15.7 E 8 10 1023.5 - 0.2 - - 10 - - - -
19/03:30pm 15.7 E 9 12 1023.7 - 0.2 - - 10 - - - -
19/03:00pm 16.3 E 9 11 1023.8 - 0.2 - - 10 - - - -
19/02:30pm 16.2 ENE 10 12 1024.1 - 0.2 - - 10 - - - -
19/02:00pm 15.9 NNE 6 10 1024.4 - 0.2 - - 10 - - - -
19/01:30pm 16.1 NE 8 13 1024.6 - 0.2 - Partly cloudy 10 - - - -
19/01:00pm 16.0 ENE 10 14 1024.9 - 0.2 - Partly cloudy 10 - - - -
19/12:30pm 15.9 E 9 13 1025.2 - 0.2 - Partly cloudy 10 - - - -
19/12:00pm 15.3 NE 10 14 1025.5 - 0.2 - - 10 - - - -
19/11:30am 15.0 ENE 11 15 1025.8 - 0.2 - - 10 - - - -
19/11:00am 14.9 ENE 12 16 1025.9 - 0.2 - - 10 - - - -
19/10:30am 14.2 NE 11 15 1026.2 - 0.0 - - 10 - - - -
19/10:00am 14.3 ENE 12 16 1026.4 - 0.0 - - 10 - - - -
19/09:30am 13.8 ENE 12 16 1026.8 - 0.0 - - 10 - - - -
19/09:00am 13.3 ENE 12 14 1026.8 - 1.4 - Mostly clear 10 - - - -
19/08:30am 10.2 CALM 0 0 1026.9 - 1.4 - - 10 - - - -
19/08:00am 7.2 CALM 0 0 1026.7 - 1.4 - - 10 - - - -
19/07:30am 4.4 CALM 0 0 1026.4 - 1.4 - Partly cloudy 10 - - - -
19/07:00am 3.8 CALM 0 0 1026.2 - 1.4 - Partly cloudy 10 - - - -
19/06:30am 1.8 CALM 0 0 1026.0 - 1.4 - Partly cloudy 10 - - - -
19/06:00am 0.8 CALM 0 0 1025.8 - 1.4 - Mostly clear 10 - - - -
19/05:30am 1.0 CALM 0 0 1025.6 - 1.4 - - 10 - - - -
19/05:00am 1.1 CALM 0 0 1025.6 - 1.4 - - 10 - - - -
19/04:30am 1.1 CALM 0 0 1025.3 - 1.4 - - 10 - - - -
19/04:00am 1.4 CALM 0 0 1025.2 - 1.4 - - 10 - - - -
19/03:30am 1.5 CALM 0 0 1025.3 - 1.4 - - 10 - - - -
19/03:00am 1.7 CALM 0 0 1025.4 - 1.4 - - 10 - - - -
19/02:30am 1.8 CALM 0 0 1025.6 - 1.4 - - 10 - - - -
19/02:00am 2.5 CALM 0 0 1025.7 - 1.4 - - 10 - - - -
19/01:30am 2.8 CALM 0 0 1026.0 - 1.4 - - 10 - - - -
19/01:00am 3.1 CALM 0 0 1026.2 - 1.4 - - 10 - - - -
19/12:30am 3.5 CALM 0 0 1026.3 - 1.4 - - 10 - - - -
19/12:00am 3.6 CALM 0 0 1026.5 - 1.4 - Partly cloudy 10 - - - -
 
Date/Time
CST
Temp

°C
Wind Pressure Rain
since 9am
mm
Weather Cloud Vis
km
Sea
Height
m
Swell
Dir
 
Speed
knots
Gust
knots
hPa Trend Height
m
Period
s
Dir
18/11:30pm 4.1 CALM 0 0 1026.7 - 1.4 - - 10 - - - -
18/11:00pm 4.9 CALM 0 0 1026.8 - 1.4 - - 10 - - - -
18/10:30pm 5.4 CALM 0 0 1027.0 - 1.4 - - 10 - - - -
18/10:00pm 4.4 CALM 0 0 1027.2 - 1.4 - - 10 - - - -
18/09:30pm 5.3 CALM 0 0 1027.2 - 1.4 - - 10 - - - -
18/09:00pm 5.9 CALM 0 0 1027.3 - 1.4 - - 10 - - - -
18/08:30pm 6.4 CALM 0 0 1027.2 - 1.4 - - 10 - - - -
18/08:00pm 7.1 SW 3 4 1027.1 - 1.4 - - 10 - - - -
18/07:30pm 7.6 SW 4 4 1027.0 - 1.4 - Partly cloudy 10 - - - -

Other Formats:

Comma delimited format used in spreadsheet applications
http://www.bom.gov.au/fwo/IDS60701/IDS60701.95807.axf

JavaScript Object Notation format (JSON) in row-major order
http://www.bom.gov.au/fwo/IDS60701/IDS60701.95807.json